SWA1311 KCMH-KDCA
Flight info
| Callsign | SWA1311 |
|---|---|
| Flight time | 1h 6m |
| Altitude | 37000 |
| Route | OWEBO AIR BUCKO FRDMM6 |
| Aircraft | B736/M-SDE2E3FGHIRWXY/LB1 |
Departure
| Time | 2026-05-08 02:17 |
|---|---|
| Airport | John Glenn Columbus International Airport (KCMH) |
Arrival
| Time | 2026-05-08 03:23 |
|---|---|
| Airport | Ronald Reagan Washington National Airport (KDCA) |
| Time | Latitude | Longitude | Altitude | Speed | Heading |
|---|---|---|---|---|---|
| 2026-05-08 02:06 | 39.99647 | -82.88497 | 810 ft | 0 kts | 14° |
| 2026-05-08 02:07 | 39.99644 | -82.88498 | 819 ft | 2 kts | 14° |
| 2026-05-08 02:07 | 39.99628 | -82.88503 | 816 ft | 2 kts | 14° |
| 2026-05-08 02:08 | 39.99613 | -82.88508 | 818 ft | 2 kts | 14° |
| 2026-05-08 02:08 | 39.99597 | -82.88513 | 817 ft | 2 kts | 13° |
| 2026-05-08 02:08 | 39.99587 | -82.88516 | 816 ft | 0 kts | 13° |
| 2026-05-08 02:10 | 39.99600 | -82.88501 | 818 ft | 6 kts | 58° |
| 2026-05-08 02:10 | 39.99585 | -82.88438 | 817 ft | 8 kts | 108° |
| 2026-05-08 02:10 | 39.99586 | -82.88409 | 817 ft | 0 kts | 91° |
| 2026-05-08 02:13 | 39.99586 | -82.88405 | 817 ft | 2 kts | 91° |
| 2026-05-08 02:14 | 39.99552 | -82.88325 | 818 ft | 19 kts | 149° |
| 2026-05-08 02:14 | 39.99500 | -82.88170 | 819 ft | 21 kts | 95° |
| 2026-05-08 02:14 | 39.99490 | -82.87980 | 822 ft | 21 kts | 91° |
| 2026-05-08 02:14 | 39.99464 | -82.87799 | 824 ft | 20 kts | 127° |
| 2026-05-08 02:15 | 39.99363 | -82.87767 | 823 ft | 10 kts | 112° |
| 2026-05-08 02:15 | 39.99359 | -82.87673 | 824 ft | 11 kts | 96° |
| 2026-05-08 02:15 | 39.99351 | -82.87564 | 822 ft | 13 kts | 95° |
| 2026-05-08 02:15 | 39.99324 | -82.87454 | 822 ft | 14 kts | 156° |
| 2026-05-08 02:16 | 39.99220 | -82.87454 | 821 ft | 16 kts | 189° |
| 2026-05-08 02:16 | 39.99176 | -82.87548 | 820 ft | 7 kts | 274° |
| 2026-05-08 02:16 | 39.99188 | -82.87779 | 820 ft | 67 kts | 274° |
| 2026-05-08 02:16 | 39.99245 | -82.88789 | 841 ft | 150 kts | 274° |
| 2026-05-08 02:17 | 39.99334 | -82.90191 | 1829 ft | 148 kts | 274° |
| 2026-05-08 02:17 | 39.99414 | -82.91471 | 3063 ft | 140 kts | 274° |
| 2026-05-08 02:17 | 39.99802 | -82.92670 | 3790 ft | 166 kts | 316° |
| 2026-05-08 02:17 | 40.01009 | -82.93183 | 4218 ft | 213 kts | 0° |
| 2026-05-08 02:18 | 40.02499 | -82.92415 | 4677 ft | 252 kts | 37° |
| 2026-05-08 02:18 | 40.03511 | -82.90402 | 5361 ft | 281 kts | 75° |
| 2026-05-08 02:18 | 40.03732 | -82.87840 | 6485 ft | 289 kts | 89° |
| 2026-05-08 02:18 | 40.03718 | -82.85177 | 7554 ft | 298 kts | 90° |
| 2026-05-08 02:19 | 40.03679 | -82.82438 | 8667 ft | 305 kts | 89° |
| 2026-05-08 02:19 | 40.03670 | -82.79643 | 9768 ft | 312 kts | 86° |
| 2026-05-08 02:19 | 40.03699 | -82.76767 | 10680 ft | 324 kts | 85° |
| 2026-05-08 02:19 | 40.03767 | -82.73704 | 11194 ft | 348 kts | 84° |
| 2026-05-08 02:20 | 40.03863 | -82.70498 | 12069 ft | 357 kts | 84° |
| 2026-05-08 02:20 | 40.03977 | -82.67228 | 13090 ft | 363 kts | 83° |
| 2026-05-08 02:20 | 40.04104 | -82.63911 | 14058 ft | 369 kts | 83° |
| 2026-05-08 02:20 | 40.04241 | -82.60531 | 14907 ft | 376 kts | 83° |
| 2026-05-08 02:21 | 40.04373 | -82.57094 | 15755 ft | 383 kts | 84° |
| 2026-05-08 02:21 | 40.04418 | -82.53577 | 16589 ft | 391 kts | 86° |
| 2026-05-08 02:21 | 40.04448 | -82.50002 | 17444 ft | 398 kts | 86° |
| 2026-05-08 02:21 | 40.04511 | -82.46362 | 18322 ft | 403 kts | 85° |
| 2026-05-08 02:22 | 40.04616 | -82.42669 | 19017 ft | 412 kts | 84° |
| 2026-05-08 02:22 | 40.04755 | -82.38889 | 19622 ft | 422 kts | 84° |
| 2026-05-08 02:22 | 40.04917 | -82.35069 | 20276 ft | 431 kts | 84° |
| 2026-05-08 02:22 | 40.05095 | -82.31124 | 20945 ft | 440 kts | 84° |
| 2026-05-08 02:23 | 40.05279 | -82.27097 | 21604 ft | 448 kts | 84° |
| 2026-05-08 02:23 | 40.05468 | -82.22990 | 22253 ft | 457 kts | 84° |
| 2026-05-08 02:23 | 40.05655 | -82.18868 | 23337 ft | 453 kts | 85° |
| 2026-05-08 02:23 | 40.05836 | -82.14792 | 24415 ft | 445 kts | 85° |
| 2026-05-08 02:24 | 40.06011 | -82.10806 | 25589 ft | 434 kts | 85° |
| 2026-05-08 02:24 | 40.06180 | -82.06933 | 26763 ft | 422 kts | 85° |
| 2026-05-08 02:24 | 40.06343 | -82.03159 | 27921 ft | 411 kts | 85° |
| 2026-05-08 02:24 | 40.06503 | -81.99463 | 28850 ft | 408 kts | 85° |
| 2026-05-08 02:25 | 40.06665 | -81.95740 | 29406 ft | 415 kts | 85° |
| 2026-05-08 02:25 | 40.06829 | -81.91940 | 29911 ft | 423 kts | 85° |
| 2026-05-08 02:25 | 40.06993 | -81.88088 | 30438 ft | 427 kts | 85° |
| 2026-05-08 02:25 | 40.07157 | -81.84197 | 30986 ft | 430 kts | 85° |
| 2026-05-08 02:26 | 40.07319 | -81.80294 | 31532 ft | 432 kts | 85° |
| 2026-05-08 02:26 | 40.07482 | -81.76359 | 32036 ft | 435 kts | 85° |
| 2026-05-08 02:26 | 40.07644 | -81.72394 | 32520 ft | 439 kts | 84° |
| 2026-05-08 02:26 | 40.07623 | -81.68385 | 32958 ft | 444 kts | 100° |
| 2026-05-08 02:27 | 40.06788 | -81.64534 | 33385 ft | 439 kts | 122° |
| 2026-05-08 02:27 | 40.05159 | -81.61265 | 33827 ft | 421 kts | 145° |
| 2026-05-08 02:27 | 40.02979 | -81.58905 | 34179 ft | 397 kts | 165° |
| 2026-05-08 02:27 | 40.00533 | -81.57544 | 34497 ft | 369 kts | 183° |
| 2026-05-08 02:28 | 39.98085 | -81.57099 | 34834 ft | 344 kts | 198° |
| 2026-05-08 02:28 | 39.95793 | -81.57405 | 35198 ft | 321 kts | 211° |
| 2026-05-08 02:28 | 39.93739 | -81.58305 | 35539 ft | 303 kts | 222° |
| 2026-05-08 02:28 | 39.91971 | -81.59670 | 35861 ft | 289 kts | 232° |
| 2026-05-08 02:29 | 39.90528 | -81.61366 | 36183 ft | 279 kts | 241° |
| 2026-05-08 02:29 | 39.89358 | -81.63342 | 36507 ft | 273 kts | 247° |
| 2026-05-08 02:29 | 39.88392 | -81.65460 | 36824 ft | 271 kts | 252° |
| 2026-05-08 02:29 | 39.87697 | -81.67727 | 37089 ft | 268 kts | 261° |
| 2026-05-08 02:30 | 39.87411 | -81.70119 | 37380 ft | 268 kts | 268° |
| 2026-05-08 02:30 | 39.87259 | -81.72546 | 37670 ft | 270 kts | 268° |
| 2026-05-08 02:30 | 39.87128 | -81.75001 | 37970 ft | 273 kts | 268° |
| 2026-05-08 02:30 | 39.86998 | -81.77476 | 38268 ft | 276 kts | 268° |
| 2026-05-08 02:31 | 39.86865 | -81.79978 | 38554 ft | 278 kts | 268° |
| 2026-05-08 02:31 | 39.86729 | -81.82502 | 38805 ft | 281 kts | 268° |
| 2026-05-08 02:31 | 39.86591 | -81.85050 | 39008 ft | 283 kts | 268° |
| 2026-05-08 02:31 | 39.86451 | -81.87588 | 39216 ft | 286 kts | 268° |
| 2026-05-08 02:32 | 39.86307 | -81.90180 | 39393 ft | 289 kts | 268° |
| 2026-05-08 02:32 | 39.86162 | -81.92810 | 39567 ft | 292 kts | 268° |
| 2026-05-08 02:32 | 39.86346 | -81.95437 | 39737 ft | 295 kts | 282° |
| 2026-05-08 02:32 | 39.87040 | -81.97973 | 39942 ft | 300 kts | 289° |
| 2026-05-08 02:33 | 39.88029 | -82.00402 | 40136 ft | 307 kts | 296° |
| 2026-05-08 02:33 | 39.89326 | -82.02662 | 40292 ft | 318 kts | 304° |
| 2026-05-08 02:33 | 39.91016 | -82.04610 | 40435 ft | 334 kts | 315° |
| 2026-05-08 02:33 | 39.93130 | -82.06051 | 40576 ft | 355 kts | 328° |
| 2026-05-08 02:34 | 39.95614 | -82.06786 | 40737 ft | 380 kts | 343° |
| 2026-05-08 02:34 | 39.98341 | -82.06629 | 40899 ft | 408 kts | 359° |
| 2026-05-08 02:34 | 40.01127 | -82.05406 | 40998 ft | 438 kts | 17° |
| 2026-05-08 02:34 | 40.03667 | -82.03007 | 41022 ft | 467 kts | 37° |
| 2026-05-08 02:35 | 40.05575 | -81.99528 | 41018 ft | 490 kts | 59° |
| 2026-05-08 02:35 | 40.06592 | -81.95178 | 41029 ft | 502 kts | 82° |
| 2026-05-08 02:35 | 40.06999 | -81.86107 | 41024 ft | 506 kts | 87° |
| 2026-05-08 02:36 | 40.07364 | -81.76898 | 41027 ft | 509 kts | 85° |
| 2026-05-08 02:36 | 40.07704 | -81.67652 | 40988 ft | 510 kts | 99° |
| 2026-05-08 02:37 | 40.06815 | -81.63228 | 41046 ft | 499 kts | 120° |
| 2026-05-08 02:37 | 40.05057 | -81.59410 | 41026 ft | 484 kts | 139° |
| 2026-05-08 02:37 | 40.02691 | -81.56434 | 41045 ft | 464 kts | 155° |
| 2026-05-08 02:37 | 39.99963 | -81.54387 | 41032 ft | 442 kts | 171° |
| 2026-05-08 02:38 | 39.97098 | -81.53294 | 41039 ft | 419 kts | 185° |
| 2026-05-08 02:38 | 39.94275 | -81.53083 | 41042 ft | 397 kts | 198° |
| 2026-05-08 02:38 | 39.91619 | -81.53641 | 41038 ft | 378 kts | 209° |
| 2026-05-08 02:38 | 39.89226 | -81.54833 | 41036 ft | 361 kts | 220° |
| 2026-05-08 02:39 | 39.87144 | -81.56534 | 41038 ft | 347 kts | 230° |
| 2026-05-08 02:39 | 39.85404 | -81.58634 | 41032 ft | 336 kts | 238° |
| 2026-05-08 02:39 | 39.82905 | -81.63594 | 41023 ft | 324 kts | 251° |
| 2026-05-08 02:40 | 39.81670 | -81.69058 | 41030 ft | 315 kts | 266° |
| 2026-05-08 02:40 | 39.81333 | -81.74744 | 41030 ft | 315 kts | 268° |
| 2026-05-08 02:41 | 39.81038 | -81.80454 | 40627 ft | 322 kts | 268° |
| 2026-05-08 02:41 | 39.80929 | -81.83417 | 39778 ft | 330 kts | 275° |
| 2026-05-08 02:41 | 39.81398 | -81.86367 | 39021 ft | 339 kts | 285° |
| 2026-05-08 02:42 | 39.82293 | -81.89202 | 38188 ft | 347 kts | 291° |
| 2026-05-08 02:42 | 39.83484 | -81.91975 | 37271 ft | 356 kts | 297° |
| 2026-05-08 02:42 | 39.85018 | -81.94566 | 36394 ft | 367 kts | 305° |
| 2026-05-08 02:42 | 39.86965 | -81.96800 | 35554 ft | 382 kts | 315° |
| 2026-05-08 02:43 | 39.89344 | -81.98511 | 34734 ft | 401 kts | 326° |
| 2026-05-08 02:43 | 39.92093 | -81.99532 | 33929 ft | 422 kts | 338° |
| 2026-05-08 02:43 | 39.95101 | -81.99683 | 33378 ft | 440 kts | 352° |
| 2026-05-08 02:43 | 39.98136 | -81.98884 | 33201 ft | 450 kts | 5° |
| 2026-05-08 02:44 | 40.01004 | -81.97129 | 33056 ft | 463 kts | 20° |
| 2026-05-08 02:44 | 40.03511 | -81.94423 | 33021 ft | 472 kts | 37° |
| 2026-05-08 02:44 | 40.05442 | -81.90939 | 33015 ft | 477 kts | 53° |
| 2026-05-08 02:44 | 40.06730 | -81.86945 | 33008 ft | 477 kts | 71° |
| 2026-05-08 02:45 | 40.07229 | -81.82701 | 33023 ft | 469 kts | 84° |
| 2026-05-08 02:45 | 40.07385 | -81.78494 | 33011 ft | 458 kts | 86° |
| 2026-05-08 02:45 | 40.07532 | -81.74398 | 33009 ft | 447 kts | 84° |
| 2026-05-08 02:45 | 40.07715 | -81.70356 | 33034 ft | 450 kts | 85° |
| 2026-05-08 02:46 | 40.07689 | -81.66247 | 33068 ft | 467 kts | 93° |
| 2026-05-08 02:46 | 40.07415 | -81.61944 | 33053 ft | 483 kts | 96° |
| 2026-05-08 02:46 | 40.07037 | -81.57513 | 33062 ft | 498 kts | 97° |
| 2026-05-08 02:46 | 40.06639 | -81.52955 | 33051 ft | 512 kts | 97° |
| 2026-05-08 02:47 | 40.06258 | -81.48267 | 33053 ft | 525 kts | 96° |
| 2026-05-08 02:47 | 40.05903 | -81.43462 | 33047 ft | 537 kts | 95° |
| 2026-05-08 02:47 | 40.05244 | -81.33617 | 33031 ft | 548 kts | 95° |
| 2026-05-08 02:48 | 40.04709 | -81.25385 | 33014 ft | 548 kts | 95° |
| 2026-05-08 02:48 | 40.04049 | -81.15482 | 33006 ft | 546 kts | 95° |
| 2026-05-08 02:49 | 40.03374 | -81.05626 | 33010 ft | 544 kts | 95° |
| 2026-05-08 02:49 | 40.02693 | -80.95810 | 33007 ft | 542 kts | 95° |
| 2026-05-08 02:50 | 40.01685 | -80.86080 | 33000 ft | 540 kts | 109° |
| 2026-05-08 02:50 | 40.00363 | -80.81533 | 33021 ft | 533 kts | 121° |
| 2026-05-08 02:50 | 39.98529 | -80.77356 | 33015 ft | 529 kts | 132° |
| 2026-05-08 02:51 | 39.93730 | -80.70317 | 33009 ft | 522 kts | 143° |
| 2026-05-08 02:51 | 39.88668 | -80.63525 | 32994 ft | 523 kts | 143° |
| 2026-05-08 02:52 | 39.83650 | -80.56684 | 32990 ft | 523 kts | 142° |
| 2026-05-08 02:52 | 39.78667 | -80.49802 | 32989 ft | 522 kts | 142° |
| 2026-05-08 02:53 | 39.76209 | -80.46393 | 32966 ft | 509 kts | 142° |
| 2026-05-08 02:53 | 39.73835 | -80.43090 | 32967 ft | 492 kts | 143° |
| 2026-05-08 02:53 | 39.71534 | -80.39895 | 32969 ft | 476 kts | 143° |
| 2026-05-08 02:53 | 39.69304 | -80.36811 | 32981 ft | 461 kts | 144° |
| 2026-05-08 02:54 | 39.67135 | -80.33825 | 32972 ft | 448 kts | 144° |
| 2026-05-08 02:54 | 39.64995 | -80.30898 | 32990 ft | 447 kts | 145° |
| 2026-05-08 02:54 | 39.60669 | -80.25026 | 33001 ft | 456 kts | 145° |
| 2026-05-08 02:55 | 39.54156 | -80.16124 | 32989 ft | 451 kts | 145° |
| 2026-05-08 02:56 | 39.49846 | -80.10241 | 32993 ft | 449 kts | 145° |
| 2026-05-08 02:56 | 39.45540 | -80.04379 | 32993 ft | 449 kts | 146° |
| 2026-05-08 02:57 | 39.41219 | -79.98509 | 32991 ft | 450 kts | 146° |
| 2026-05-08 02:57 | 39.36891 | -79.92639 | 32992 ft | 452 kts | 146° |
| 2026-05-08 02:57 | 39.34733 | -79.89719 | 32547 ft | 459 kts | 146° |
| 2026-05-08 02:58 | 39.32511 | -79.86719 | 31922 ft | 464 kts | 145° |
| 2026-05-08 02:58 | 39.30447 | -79.83423 | 31238 ft | 486 kts | 128° |
| 2026-05-08 02:58 | 39.29095 | -79.79384 | 30738 ft | 500 kts | 107° |
| 2026-05-08 02:58 | 39.28600 | -79.74923 | 30326 ft | 501 kts | 96° |
| 2026-05-08 02:59 | 39.28317 | -79.70438 | 29795 ft | 500 kts | 95° |
| 2026-05-08 02:59 | 39.28051 | -79.65979 | 29311 ft | 497 kts | 96° |
| 2026-05-08 02:59 | 39.27741 | -79.61548 | 28887 ft | 491 kts | 97° |
| 2026-05-08 02:59 | 39.27395 | -79.57182 | 28467 ft | 486 kts | 97° |
| 2026-05-08 03:00 | 39.27037 | -79.52865 | 28039 ft | 482 kts | 98° |
| 2026-05-08 03:00 | 39.26684 | -79.48586 | 27637 ft | 478 kts | 97° |
| 2026-05-08 03:00 | 39.26335 | -79.44331 | 27225 ft | 475 kts | 97° |
| 2026-05-08 03:00 | 39.25989 | -79.40095 | 26811 ft | 473 kts | 97° |
| 2026-05-08 03:01 | 39.25643 | -79.35863 | 26406 ft | 472 kts | 97° |
| 2026-05-08 03:01 | 39.25301 | -79.31695 | 26020 ft | 475 kts | 98° |
| 2026-05-08 03:01 | 39.24949 | -79.27440 | 25607 ft | 478 kts | 98° |
| 2026-05-08 03:01 | 39.24595 | -79.23182 | 25201 ft | 476 kts | 98° |
| 2026-05-08 03:02 | 39.24238 | -79.18938 | 24791 ft | 474 kts | 98° |
| 2026-05-08 03:02 | 39.23878 | -79.14711 | 24377 ft | 473 kts | 98° |
| 2026-05-08 03:02 | 39.23517 | -79.10492 | 23963 ft | 470 kts | 98° |
| 2026-05-08 03:02 | 39.23160 | -79.06324 | 23566 ft | 464 kts | 98° |
| 2026-05-08 03:03 | 39.22806 | -79.02202 | 23100 ft | 459 kts | 98° |
| 2026-05-08 03:03 | 39.22456 | -78.98139 | 22665 ft | 453 kts | 98° |
| 2026-05-08 03:03 | 39.22101 | -78.94123 | 22276 ft | 447 kts | 99° |
| 2026-05-08 03:03 | 39.21725 | -78.90164 | 21891 ft | 442 kts | 99° |
| 2026-05-08 03:04 | 39.21341 | -78.86260 | 21495 ft | 437 kts | 99° |
| 2026-05-08 03:04 | 39.20960 | -78.82393 | 21138 ft | 432 kts | 99° |
| 2026-05-08 03:04 | 39.20589 | -78.78608 | 20780 ft | 429 kts | 99° |
| 2026-05-08 03:04 | 39.20218 | -78.74810 | 20404 ft | 426 kts | 100° |
| 2026-05-08 03:05 | 39.19849 | -78.71032 | 20045 ft | 424 kts | 99° |
| 2026-05-08 03:05 | 39.19477 | -78.67257 | 19694 ft | 424 kts | 101° |
| 2026-05-08 03:05 | 39.19106 | -78.63493 | 19298 ft | 422 kts | 99° |
| 2026-05-08 03:05 | 39.18736 | -78.59751 | 18966 ft | 420 kts | 100° |
| 2026-05-08 03:06 | 39.18366 | -78.56020 | 18592 ft | 419 kts | 100° |
| 2026-05-08 03:06 | 39.17997 | -78.52313 | 18231 ft | 414 kts | 99° |
| 2026-05-08 03:06 | 39.17633 | -78.48652 | 17835 ft | 408 kts | 99° |
| 2026-05-08 03:06 | 39.17273 | -78.45052 | 17449 ft | 402 kts | 99° |
| 2026-05-08 03:07 | 39.16919 | -78.41512 | 17147 ft | 395 kts | 99° |
| 2026-05-08 03:07 | 39.16567 | -78.38017 | 16786 ft | 390 kts | 99° |
| 2026-05-08 03:07 | 39.16069 | -78.34610 | 16452 ft | 384 kts | 109° |
| 2026-05-08 03:07 | 39.15279 | -78.31363 | 16148 ft | 377 kts | 112° |
| 2026-05-08 03:08 | 39.14432 | -78.28184 | 15823 ft | 373 kts | 112° |
| 2026-05-08 03:08 | 39.13591 | -78.25022 | 15510 ft | 374 kts | 111° |
| 2026-05-08 03:08 | 39.12751 | -78.21786 | 15198 ft | 387 kts | 111° |
| 2026-05-08 03:08 | 39.11911 | -78.18461 | 14862 ft | 391 kts | 110° |
| 2026-05-08 03:09 | 39.11081 | -78.15129 | 14531 ft | 389 kts | 110° |
| 2026-05-08 03:09 | 39.10260 | -78.11829 | 14185 ft | 386 kts | 109° |
| 2026-05-08 03:09 | 39.09449 | -78.08606 | 13859 ft | 380 kts | 110° |
| 2026-05-08 03:09 | 39.08619 | -78.05355 | 13492 ft | 374 kts | 110° |
| 2026-05-08 03:10 | 39.07812 | -78.02201 | 13142 ft | 369 kts | 109° |
| 2026-05-08 03:10 | 39.07012 | -77.99079 | 12814 ft | 366 kts | 109° |
| 2026-05-08 03:10 | 39.06215 | -77.95968 | 12495 ft | 364 kts | 109° |
| 2026-05-08 03:10 | 39.05433 | -77.92919 | 12185 ft | 362 kts | 109° |
| 2026-05-08 03:11 | 39.04648 | -77.89862 | 11870 ft | 355 kts | 109° |
| 2026-05-08 03:11 | 39.03881 | -77.86876 | 11564 ft | 347 kts | 109° |
| 2026-05-08 03:11 | 39.03131 | -77.83959 | 11282 ft | 340 kts | 109° |
| 2026-05-08 03:11 | 39.02397 | -77.81107 | 10991 ft | 333 kts | 108° |
| 2026-05-08 03:12 | 39.01673 | -77.78304 | 10711 ft | 326 kts | 108° |
| 2026-05-08 03:12 | 39.00966 | -77.75567 | 10432 ft | 320 kts | 108° |
| 2026-05-08 03:12 | 39.00270 | -77.72869 | 10163 ft | 316 kts | 108° |
| 2026-05-08 03:12 | 38.99582 | -77.70211 | 9906 ft | 311 kts | 108° |
| 2026-05-08 03:13 | 38.98905 | -77.67600 | 9613 ft | 306 kts | 108° |
| 2026-05-08 03:13 | 38.98235 | -77.65026 | 9331 ft | 301 kts | 109° |
| 2026-05-08 03:13 | 38.97516 | -77.62525 | 9064 ft | 296 kts | 110° |
| 2026-05-08 03:13 | 38.96779 | -77.60069 | 8806 ft | 293 kts | 110° |
| 2026-05-08 03:14 | 38.96057 | -77.57655 | 8558 ft | 292 kts | 110° |
| 2026-05-08 03:14 | 38.95333 | -77.55222 | 8307 ft | 291 kts | 110° |
| 2026-05-08 03:14 | 38.94698 | -77.52754 | 8040 ft | 290 kts | 97° |
| 2026-05-08 03:14 | 38.94803 | -77.50213 | 7746 ft | 284 kts | 71° |
| 2026-05-08 03:15 | 38.95515 | -77.47865 | 7450 ft | 282 kts | 63° |
| 2026-05-08 03:15 | 38.96304 | -77.45563 | 7129 ft | 281 kts | 63° |
| 2026-05-08 03:15 | 38.97092 | -77.43276 | 6810 ft | 279 kts | 63° |
| 2026-05-08 03:15 | 38.97866 | -77.41000 | 6500 ft | 276 kts | 63° |
| 2026-05-08 03:16 | 38.98626 | -77.38742 | 6176 ft | 275 kts | 63° |
| 2026-05-08 03:16 | 38.99376 | -77.36498 | 5852 ft | 273 kts | 63° |
| 2026-05-08 03:16 | 39.00120 | -77.34267 | 5540 ft | 271 kts | 63° |
| 2026-05-08 03:16 | 39.00861 | -77.32050 | 5234 ft | 268 kts | 63° |
| 2026-05-08 03:17 | 39.01599 | -77.29852 | 4944 ft | 266 kts | 63° |
| 2026-05-08 03:17 | 39.02321 | -77.27706 | 4651 ft | 264 kts | 62° |
| 2026-05-08 03:17 | 39.02856 | -77.25447 | 4338 ft | 269 kts | 84° |
| 2026-05-08 03:17 | 39.02506 | -77.23093 | 4040 ft | 272 kts | 116° |
| 2026-05-08 03:18 | 39.01364 | -77.21205 | 3782 ft | 262 kts | 137° |
| 2026-05-08 03:18 | 39.00072 | -77.19661 | 3490 ft | 246 kts | 139° |
| 2026-05-08 03:18 | 38.98853 | -77.18218 | 3214 ft | 232 kts | 139° |
| 2026-05-08 03:18 | 38.97699 | -77.16825 | 2946 ft | 221 kts | 137° |
| 2026-05-08 03:19 | 38.96641 | -77.15498 | 2676 ft | 203 kts | 137° |
| 2026-05-08 03:19 | 38.95650 | -77.14338 | 2480 ft | 181 kts | 141° |
| 2026-05-08 03:19 | 38.94750 | -77.13343 | 2262 ft | 162 kts | 142° |
| 2026-05-08 03:19 | 38.93929 | -77.12436 | 2105 ft | 154 kts | 142° |
| 2026-05-08 03:20 | 38.93091 | -77.11586 | 1914 ft | 151 kts | 154° |
| 2026-05-08 03:20 | 38.92161 | -77.11001 | 1750 ft | 146 kts | 159° |
| 2026-05-08 03:20 | 38.91261 | -77.10414 | 1560 ft | 147 kts | 152° |
| 2026-05-08 03:20 | 38.90545 | -77.09463 | 1357 ft | 148 kts | 122° |
| 2026-05-08 03:21 | 38.90308 | -77.08215 | 1181 ft | 143 kts | 92° |
| 2026-05-08 03:21 | 38.90047 | -77.07040 | 1009 ft | 139 kts | 123° |
| 2026-05-08 03:21 | 38.89425 | -77.06157 | 824 ft | 129 kts | 140° |
| 2026-05-08 03:21 | 38.88807 | -77.05360 | 628 ft | 125 kts | 136° |
| 2026-05-08 03:22 | 38.88187 | -77.04567 | 468 ft | 126 kts | 143° |
| 2026-05-08 03:22 | 38.87424 | -77.04061 | 321 ft | 122 kts | 166° |
| 2026-05-08 03:22 | 38.86591 | -77.03910 | 169 ft | 121 kts | 177° |
| 2026-05-08 03:22 | 38.85773 | -77.03839 | 25 ft | 111 kts | 176° |
| 2026-05-08 03:23 | 38.85203 | -77.03778 | 25 ft | 65 kts | 175° |
| 2026-05-08 03:23 | 38.84885 | -77.03824 | 22 ft | 28 kts | 249° |
| 2026-05-08 03:23 | 38.84881 | -77.03853 | 23 ft | 0 kts | 265° |
| 2026-05-08 03:24 | 38.84871 | -77.03879 | 24 ft | 8 kts | 223° |
| 2026-05-08 03:24 | 38.84783 | -77.03883 | 24 ft | 15 kts | 189° |
| 2026-05-08 03:24 | 38.84681 | -77.03933 | 25 ft | 17 kts | 194° |
| 2026-05-08 03:25 | 38.84591 | -77.04029 | 26 ft | 18 kts | 255° |
| 2026-05-08 03:25 | 38.84623 | -77.04181 | 25 ft | 12 kts | 303° |
| 2026-05-08 03:25 | 38.84651 | -77.04205 | 25 ft | 0 kts | 332° |